Flight Track Log - Related Links

Times and Time Zones

All times are in EDT time to prevent confusion due to time zone crossing. See the N502QS flight status page for this flight to view local times or setup timezone preferences in your user account.

Time Position Orientation Groundspeed Altitude Reporting Facility
EDT Latitude Longitude Course Direction KTS MPH feet Rate Location/Type
Wed 03:52:00 AM 13.1194 -69.8608 321° Northwest  Level Estimated
Wed 03:53:00 AM 13.2229 -69.9386 324° Northwest  Level Estimated
Wed 03:54:00 AM 13.3264 -70.0165 324° Northwest  Level Estimated
Wed 03:55:00 AM 13.4299 -70.0944 324° Northwest  Level Estimated
Wed 03:56:00 AM 13.5334 -70.1724 324° Northwest  Level Estimated
Wed 03:57:00 AM 13.6368 -70.2505 324° Northwest  Level Estimated
Wed 03:58:00 AM 13.7402 -70.3287 324° Northwest  Level Estimated
Wed 03:59:00 AM 13.8436 -70.4069 324° Northwest  Level Estimated
Wed 04:00:00 AM 13.9470 -70.4851 324° Northwest  Level Estimated
Wed 04:01:00 AM 14.0503 -70.5635 324° Northwest  Level Estimated
Wed 04:02:00 AM 14.1537 -70.6419 324° Northwest  Level Estimated
Wed 04:03:00 AM 14.2569 -70.7204 324° Northwest  Level Estimated
Wed 04:04:00 AM 14.3602 -70.7990 324° Northwest  Level Estimated
Wed 04:05:00 AM 14.4634 -70.8776 324° Northwest  Level Estimated
Wed 04:06:00 AM 14.5667 -70.9563 324° Northwest  Level Estimated
Wed 04:07:00 AM 14.6698 -71.0351 324° Northwest  Level Estimated
Wed 04:08:00 AM 14.7730 -71.1140 324° Northwest  Level Estimated
Wed 04:09:00 AM 14.8761 -71.1929 324° Northwest  Level Estimated
Wed 04:10:00 AM 14.9792 -71.2719 323° Northwest  Level Estimated
Wed 04:11:00 AM 15.0823 -71.3510 323° Northwest  Level Estimated
Wed 04:12:00 AM 15.1854 -71.4301 323° Northwest  Level Estimated
Wed 04:13:00 AM 15.2884 -71.5094 323° Northwest  Level Estimated
Wed 04:14:00 AM 15.3914 -71.5887 323° Northwest  Level Estimated
Wed 04:15:00 AM 15.4944 -71.6681 323° Northwest  Level Estimated
Wed 04:16:00 AM 15.5973 -71.7476 323° Northwest  Level Estimated
Wed 04:17:00 AM 15.7002 -71.8271 323° Northwest  Level Estimated
Wed 04:18:00 AM 15.8031 -71.9067 323° Northwest  Level Estimated
Wed 04:19:00 AM 15.9059 -71.9864 323° Northwest  Level Estimated
Wed 04:20:00 AM 16.0088 -72.0662 323° Northwest  Level Estimated
Wed 04:21:00 AM 16.1115 -72.1461 323° Northwest  Level Estimated
Wed 04:22:00 AM 16.2143 -72.2261 323° Northwest  Level Estimated
Wed 04:23:00 AM 16.3170 -72.3061 323° Northwest  Level Estimated
Wed 04:24:00 AM 16.4197 -72.3863 323° Northwest  Level Estimated
Wed 04:25:00 AM 16.5224 -72.4665 323° Northwest  Level Estimated
Wed 04:26:00 AM 16.6250 -72.5468 323° Northwest  Level Estimated
Wed 04:27:00 AM 16.7276 -72.6271 323° Northwest  Level Estimated
Wed 04:28:00 AM 16.8302 -72.7076 323° Northwest  Level Estimated
Wed 04:29:00 AM 16.9328 -72.7882 323° Northwest  Level Estimated
Wed 04:30:00 AM 17.0353 -72.8688 323° Northwest  Level Estimated
Wed 04:31:00 AM 17.1378 -72.9496 323° Northwest  Level Estimated
Wed 04:32:00 AM 17.2402 -73.0304 323° Northwest  Level Estimated
Wed 04:33:00 AM 17.3427 -73.1113 323° Northwest  Level Estimated
Wed 04:34:00 AM 17.4450 -73.1923 323° Northwest  Level Estimated
Wed 04:35:00 AM 17.5474 -73.2734 323° Northwest  Level Estimated
Wed 04:36:00 AM 17.6497 -73.3546 323° Northwest  Level Estimated
Wed 04:37:00 AM 17.7520 -73.4359 323° Northwest  Level Estimated
Wed 04:38:00 AM 17.8543 -73.5172 323° Northwest  Level Estimated
Wed 04:39:00 AM 17.9565 -73.5987 323° Northwest  Level Estimated
Wed 04:40:00 AM 18.0587 -73.6803 323° Northwest  Level Estimated
Wed 04:41:00 AM 18.1608 -73.7619 323° Northwest  Level Estimated
Wed 04:42:00 AM 18.2630 -73.8437 323° Northwest  Level Estimated
Wed 04:42:40 AM 16.6833 -65.5500 323° Northwest 450 518 45,300  Level San Juan Center
Wed 04:43:00 AM 18.3650 -73.9255 323° Northwest  Level Estimated
Wed 04:43:40 AM 16.7833 -65.6333 321° Northwest 450 518 45,500  Level San Juan Center
Wed 04:44:00 AM 18.4671 -74.0074 323° Northwest  Level Estimated
Wed 04:44:41 AM 16.8667 -65.7167 316° Northwest 450 518 45,700  Level San Juan Center
Wed 04:45:00 AM 18.5691 -74.0895 323° Northwest  Level Estimated
Wed 04:45:41 AM 16.9667 -65.8000 321° Northwest 450 518 45,900  Level San Juan Center
Wed 04:46:00 AM 18.6711 -74.1716 323° Northwest  Level Estimated
Wed 04:46:41 AM 17.0667 -65.8833 321° Northwest 450 518 46,100  Level San Juan Center
Wed 04:47:00 AM 18.7730 -74.2539 323° Northwest  Level Estimated
Wed 04:47:42 AM 17.1667 -65.9667 321° Northwest 450 518 46,300  Level San Juan Center
Wed 04:48:00 AM 18.8653 -74.3284 323° Northwest  Level Estimated
Wed 04:48:42 AM 17.2667 -66.0500 321° Northwest 450 518 46,500  Level San Juan Center
Wed 04:49:42 AM 17.3667 -66.1333 322° Northwest 460 529 46,700 250 Climbing San Juan Center
Wed 04:50:42 AM 17.4667 -66.2167 322° Northwest 460 529 47,000 150 Climbing San Juan Center
Wed 04:51:42 AM 17.5500 -66.3000 316° Northwest 450 518 47,000  Level San Juan Center
Wed 04:52:43 AM 17.6500 -66.3833 322° Northwest 450 518 47,000  Level San Juan Center
Wed 04:53:43 AM 17.7500 -66.4667 322° Northwest 450 518 47,000  Level San Juan Center
Wed 04:54:43 AM 17.8500 -66.5500 322° Northwest 440 506 47,000  Level San Juan Center
Wed 04:55:44 AM 17.9500 -66.6333 322° Northwest 450 518 47,000  Level San Juan Center
Wed 04:56:44 AM 18.0500 -66.7167 322° Northwest 450 518 47,000  Level San Juan Center
Wed 04:57:44 AM 18.1500 -66.8000 322° Northwest 450 518 47,000  Level San Juan Center
Wed 04:58:45 AM 18.2500 -66.8833 322° Northwest 450 518 47,000  Level San Juan Center
Wed 04:59:45 AM 18.3333 -66.9667 316° Northwest 450 518 47,000  Level San Juan Center
Wed 05:00:45 AM 18.4333 -67.0500 322° Northwest 450 518 47,000  Level San Juan Center
Wed 05:01:46 AM 18.5333 -67.1500 317° Northwest 450 518 47,000  Level San Juan Center
Wed 05:02:46 AM 18.6167 -67.2500 311° West 450 518 47,000  Level San Juan Center
Wed 05:03:46 AM 18.7000 -67.3667 307° West 470 541 47,000  Level San Juan Center
Wed 05:04:47 AM 18.7667 -67.4667 305° West 460 529 47,000  Level San Juan Center
Wed 05:05:47 AM 18.8500 -67.5667 311° West 460 529 47,000  Level San Juan Center
Wed 05:06:47 AM 18.9333 -67.6833 307° West 450 518 47,000  Level San Juan Center
Wed 05:07:47 AM 19.0167 -67.7833 311° West 450 518 47,000  Level San Juan Center
Wed 05:08:47 AM 19.0833 -67.8833 305° West 450 518 47,000  Level San Juan Center
Wed 05:09:48 AM 19.1500 -67.9833 305° West 440 506 47,000  Level San Juan Center
Wed 05:10:48 AM 19.2333 -68.0833 311° West 440 506 47,000  Level San Juan Center
Wed 05:11:49 AM 19.3167 -68.1833 311° West 460 529 47,000  Level San Juan Center
Wed 05:12:49 AM 19.3833 -68.3000 301° West 460 529 47,000  Level San Juan Center
Wed 05:13:49 AM 19.4667 -68.4000 311° West 460 529 47,000  Level San Juan Center
Wed 05:14:49 AM 19.5500 -68.5167 307° West 460 529 47,000 -44 Level San Juan Center
Wed 05:16:06 AM 19.6547 -68.6500 310° West 537 618 46,900 -44 Descending Miami Center
Wed 05:17:06 AM 19.7308 -68.7575 307° West 487 560 46,900  Level Miami Center
Wed 05:18:06 AM 19.8033 -68.8700 304° West 474 545 46,900  Level Miami Center
Wed 05:19:07 AM 19.8697 -68.9892 301° West 466 536 46,900  Level Miami Center
Wed 05:20:06 AM 19.9317 -69.1044 300° West 460 529 46,900  Level Miami Center
Wed 05:21:08 AM 19.9978 -69.2242 300° West 465 535 46,900  Level Miami Center
Wed 05:22:06 AM 20.0639 -69.3417 301° West 471 542 46,900  Level Miami Center
Wed 05:23:06 AM 20.1297 -69.4572 301° West 471 542 46,900  Level Miami Center
Wed 05:24:06 AM 20.1958 -69.5772 300° West 471 542 46,900  Level Miami Center
Wed 05:25:06 AM 20.2636 -69.6928 302° West 471 542 46,900  Level Miami Center
Wed 05:26:09 AM 20.3294 -69.8108 301° West 471 542 46,900  Level Miami Center
Wed 05:27:06 AM 20.3931 -69.9311 299° West 471 542 46,900  Level Miami Center
Wed 05:28:06 AM 20.4586 -70.0450 302° West 466 536 46,900  Level Miami Center
Wed 05:29:06 AM 20.5242 -70.1636 301° West 466 536 46,900  Level Miami Center
Wed 05:30:06 AM 20.5897 -70.2819 301° West 466 536 46,900  Level Miami Center
Wed 05:31:06 AM 20.6550 -70.4006 300° West 466 536 46,900  Level Miami Center
Wed 05:32:06 AM 20.7206 -70.5217 300° West 471 542 46,900  Level Miami Center
Wed 05:33:06 AM 20.7881 -70.6425 301° West 471 542 46,900  Level Miami Center
Wed 05:34:08 AM 20.8511 -70.7594 300° West 471 542 46,900  Level Miami Center
Wed 05:35:06 AM 20.9161 -70.8764 301° West 471 542 46,900  Level Miami Center
Wed 05:36:07 AM 20.9811 -70.9978 300° West 471 542 46,900  Level Miami Center
Wed 05:37:06 AM 21.0461 -71.1172 300° West 471 542 46,900  Level Miami Center
Wed 05:38:06 AM 21.1108 -71.2367 300° West 471 542 46,900  Level Miami Center
Wed 05:39:06 AM 21.1803 -71.3694 299° West 471 542 46,900  Level Miami Center
Wed 05:40:07 AM 21.2472 -71.4889 301° West 471 542 46,900  Level Miami Center
Wed 05:41:07 AM 21.3139 -71.6111 300° West 471 542 46,900  Level Miami Center
Wed 05:42:08 AM 21.3806 -71.7308 301° West 471 542 46,900  Level Miami Center
Wed 05:43:06 AM 21.4431 -71.8489 300° West 466 536 46,900  Level Miami Center
Wed 05:44:06 AM 21.5094 -71.9689 301° West 466 536 46,900  Level Miami Center
Wed 05:45:06 AM 21.5736 -72.0892 300° West 466 536 46,900  Level Miami Center
Wed 05:46:07 AM 21.6378 -72.2075 300° West 466 536 46,900  Level Miami Center
Wed 05:47:08 AM 21.7039 -72.3236 302° West 466 536 46,900  Level Miami Center
Wed 05:48:06 AM 21.7639 -72.4444 298° West 461 531 46,900  Level Miami Center
Wed 05:49:06 AM 21.8297 -72.5628 301° West 461 531 46,900  Level Miami Center
Wed 05:50:06 AM 21.8917 -72.6839 299° West 461 531 46,900  Level Miami Center
Wed 05:51:07 AM 21.9553 -72.8028 300° West 461 531 46,900  Level Miami Center
Wed 05:52:08 AM 22.0211 -72.9217 301° West 461 531 46,900  Level Miami Center
Wed 05:53:08 AM 22.0847 -73.0431 300° West 456 525 46,900  Level Miami Center
Wed 05:54:09 AM 22.1461 -73.1622 299° West 456 525 46,900  Level Miami Center
Wed 05:55:06 AM 22.2097 -73.2836 300° West 456 525 46,900  Level Miami Center
Wed 05:56:06 AM 22.2750 -73.4031 301° West 461 531 46,900  Level Miami Center
Wed 05:57:06 AM 22.3300 -73.5206 297° West 451 519 46,900  Level Miami Center
Wed 05:58:09 AM 22.3931 -73.6447 299° West 451 519 46,900  Level Miami Center
Wed 05:59:07 AM 22.4583 -73.7644 301° West 456 525 46,900  Level Miami Center
Wed 06:00:07 AM 22.5192 -73.8844 299° West 456 525 46,900  Level Miami Center
Wed 06:01:06 AM 22.5842 -74.0044 300° West 456 525 46,900  Level Miami Center
Wed 06:02:08 AM 22.6469 -74.1267 299° West 461 531 46,900  Level Miami Center
Wed 06:03:06 AM 22.7117 -74.2492 300° West 461 531 46,900  Level Miami Center
Wed 06:04:07 AM 22.7722 -74.3719 298° West 466 536 46,900  Level Miami Center
Wed 06:05:06 AM 22.8369 -74.4969 299° West 471 542 46,900  Level Miami Center
Wed 06:06:07 AM 22.9017 -74.6197 300° West 471 542 46,900  Level Miami Center
Wed 06:07:09 AM 22.9575 -74.7292 299° West 471 542 46,900  Level Miami Center
Wed 06:08:07 AM 23.0219 -74.8544 299° West 471 542 46,900  Level Miami Center
Wed 06:09:08 AM 23.0842 -74.9778 299° West 471 542 46,900  Level Miami Center
Wed 06:10:06 AM 23.1483 -75.1011 300° West 471 542 46,900  Level Miami Center
Wed 06:11:06 AM 23.2103 -75.2222 299° West 471 542 46,900  Level Miami Center
Wed 06:12:08 AM 23.2722 -75.3458 299° West 471 542 46,900  Level Miami Center
Wed 06:13:06 AM 23.3339 -75.4672 299° West 471 542 46,900  Level Miami Center
Wed 06:14:06 AM 23.3956 -75.5844 300° West 460 529 46,900  Level Miami Center
Wed 06:15:06 AM 23.4636 -75.7264 298° West 465 535 46,900  Level Miami Center
Wed 06:16:06 AM 23.5250 -75.8481 299° West 465 535 46,900  Level Miami Center
Wed 06:17:06 AM 23.5928 -75.9792 299° West 478 550 46,900  Level Miami Center
Wed 06:18:06 AM 23.6519 -76.0989 298° West 463 533 46,900  Level Miami Center
Wed 06:19:06 AM 23.7131 -76.2233 298° West 463 533 46,900  Level Miami Center
Wed 06:20:06 AM 23.7742 -76.3458 299° West 457 526 46,900  Level Miami Center
Wed 06:21:06 AM 23.8353 -76.4681 299° West 457 526 46,900  Level Miami Center
Wed 06:22:06 AM 23.8981 -76.5906 299° West 457 526 46,900  Level Miami Center
Wed 06:23:06 AM 23.9547 -76.7156 296° West 457 526 46,900  Level Miami Center
Wed 06:24:06 AM 24.0175 -76.8406 299° West 457 526 46,900  Level Miami Center
Wed 06:25:06 AM 24.0697 -76.9453 299° West 452 520 46,900  Level Miami Center
Wed 06:26:06 AM 24.1303 -77.0753 297° West 458 527 46,900  Level Miami Center
Wed 06:27:06 AM 24.1906 -77.2006 298° West 463 533 46,900  Level Miami Center
Wed 06:28:06 AM 24.2531 -77.3283 298° West 468 539 46,900  Level Miami Center
Wed 06:29:06 AM 24.3153 -77.4586 298° West 473 544 46,900  Level Miami Center
Wed 06:30:06 AM 24.3753 -77.5844 298° West 468 539 46,900  Level Miami Center
Wed 06:31:06 AM 24.4372 -77.7103 298° West 468 539 46,900  Level Miami Center
Wed 06:32:06 AM 24.4972 -77.8364 298° West 468 539 46,900  Level Miami Center
Wed 06:33:06 AM 24.5589 -77.9647 298° West 468 539 46,900 -1,050 Level Miami Center
Wed 06:34:06 AM 24.6186 -78.0886 298° West 468 539 44,800 -2,300 Descending Miami Center
Wed 06:35:06 AM 24.6761 -78.2128 297° West 463 533 42,300 -2,450 Descending Miami Center
Wed 06:36:06 AM 24.7353 -78.3369 298° West 463 533 39,900 -2,450 Descending Miami Center
Wed 06:37:06 AM 24.7928 -78.4544 298° West 449 517 37,400 -2,500 Descending Miami Center
Wed 06:38:06 AM 24.8497 -78.5789 297° West 449 517 34,900 -2,550 Descending Miami Center
Wed 06:39:06 AM 24.9172 -78.7150 299° West 459 528 32,300 -2,600 Descending Miami Center
Wed 06:40:06 AM 24.9803 -78.8489 297° West 470 541 29,700 -2,650 Descending Miami Center
Wed 06:41:06 AM 25.0453 -78.9714 300° West 470 541 27,000 -2,550 Descending Miami Center
Wed 06:42:06 AM 25.1000 -79.0939 296° West 457 526 24,600 -2,400 Descending Miami Center
Wed 06:43:06 AM 25.1547 -79.2119 297° West 445 512 22,200 -2,350 Descending Miami Center
Wed 06:44:06 AM 25.2072 -79.3233 298° West 434 499 19,900 -2,150 Descending Miami Center
Wed 06:45:06 AM 25.2594 -79.4322 298° West 418 481 17,900 -2,077 Descending Miami Center
Wed 06:45:50 AM 25.2936 -79.5181 294° West 392 451 16,300 -2,189 Descending Miami Center
Wed 06:46:20 AM 25.3178 -79.5692 298° West 381 438 15,200 -2,289 Descending Miami Center
Wed 06:47:06 AM 25.3539 -79.6436 298° West 384 442 13,400 -1,868 Descending Miami Center
Wed 06:48:06 AM 25.4022 -79.7414 299° West 373 429 11,900 -1,533 Descending Miami Center
Wed 06:49:23 AM 25.4203 -79.8842 278° West 356 410 9,900 -1,600 Descending Miami Center
Wed 06:50:06 AM 25.4314 -79.9536 280° West 352 405 8,700 -1,617 Descending Miami Center
Wed 06:51:18 AM 25.4414 -80.0667 276° West 293 337 6,800 -1,550 Descending Miami Center
Wed 06:52:06 AM 25.4525 -80.1314 281° West 305 351 5,600 -1,500 Descending Miami Center
Wed 06:53:06 AM 25.4781 -80.2103 290° West 285 328 4,100 -800 Descending Miami Center
Wed 06:54:06 AM 25.5139 -80.2847 298° West 277 319 4,000 -50 Descending Miami Center
Wed 06:55:06 AM 25.5478 -80.3550 298° West 272 313 4,000  Level Miami Center
Wed 06:56:21 AM 25.5581 -80.4472 277° West 236 272 4,000  Level Miami Center
Wed 06:57:22 AM 25.5542 -80.5208 267° West 234 269 4,000  Level Miami Center
Wed 06:58:22 AM 25.5817 -80.5861 295° West 243 280 4,000  Level Miami Center
Wed 06:59:29 AM 25.6417 -80.6064 343° North 220 253 4,000  Level Miami Center
Wed 07:00:30 AM 25.7025 -80.5944 10° North 223 257 4,000 -52 Level Miami Center
Wed 07:01:24 AM 25.7556 -80.5708 22° Northeast 220 253 3,900 -522 Descending Miami Center
Wed 07:02:25 AM 25.7881 -80.5189 55° Northeast 212 244 3,000 -516 Descending Miami Center
Wed 07:03:32 AM 25.7894 -80.4633 88° East 153 176 2,800 -469 Descending Miami Center
Wed 07:04:33 AM 25.7928 -80.4150 86° East 151 174 2,000 -744 Descending Miami Center
Wed 07:05:33 AM 25.7936 -80.3781 89° East 113 130 1,300 -595 Descending Miami Center
Wed 07:06:34 AM 25.7964 -80.3436 85° East 104 120 800 -492 Descending Miami Center

Login

Don't have an account? Register now (free) for customized features, flight alerts, and more!